createdAt,value
2022-10-06T00:00:45.103Z,297.80
2022-10-06T00:01:45.070Z,299.80
2022-10-06T00:02:45.113Z,300.20
2022-10-06T00:03:45.021Z,304.40
2022-10-06T00:04:44.997Z,305.50
2022-10-06T00:05:45.043Z,287.50
2022-10-06T00:06:44.983Z,278.80
2022-10-06T00:07:44.972Z,290.00
2022-10-06T00:08:44.965Z,302.20
2022-10-06T00:09:44.974Z,305.10
2022-10-06T00:10:44.984Z,286.00
2022-10-06T00:11:44.925Z,288.20
2022-10-06T00:12:44.922Z,284.80
2022-10-06T00:13:44.922Z,291.40
2022-10-06T00:14:44.902Z,308.10
2022-10-06T00:15:44.988Z,296.80
2022-10-06T00:16:44.883Z,282.90
2022-10-06T00:17:44.890Z,268.30
2022-10-06T00:18:44.858Z,255.70
2022-10-06T00:19:44.852Z,262.10
2022-10-06T00:20:44.886Z,260.90
2022-10-06T00:21:44.837Z,253.20
2022-10-06T00:22:44.816Z,250.70
2022-10-06T00:23:44.822Z,251.50
2022-10-06T00:24:44.791Z,246.20
2022-10-06T00:25:44.806Z,243.20
2022-10-06T00:26:44.772Z,238.20
2022-10-06T00:27:44.760Z,245.00
2022-10-06T00:28:44.796Z,246.70
2022-10-06T00:29:44.726Z,234.70
2022-10-06T00:30:44.794Z,243.00
2022-10-06T00:31:44.691Z,228.30
2022-10-06T00:32:44.690Z,243.70
2022-10-06T00:33:44.673Z,237.70
2022-10-06T00:34:44.662Z,247.20
2022-10-06T00:35:44.700Z,245.20
2022-10-06T00:36:44.648Z,244.80
2022-10-06T00:37:44.656Z,241.80
2022-10-06T00:38:44.625Z,232.10
2022-10-06T00:39:44.631Z,230.50
2022-10-06T00:40:44.661Z,229.00
2022-10-06T00:41:44.591Z,235.80
2022-10-06T00:42:44.587Z,232.00
2022-10-06T00:43:44.576Z,243.40
2022-10-06T00:44:44.566Z,233.30
2022-10-06T00:45:44.603Z,233.40
2022-10-06T00:46:44.574Z,229.80
2022-10-06T00:47:44.530Z,227.30
2022-10-06T00:48:44.561Z,230.20
2022-10-06T00:49:44.525Z,228.10
2022-10-06T00:50:44.541Z,234.60
2022-10-06T00:51:44.486Z,232.50
2022-10-06T00:52:44.504Z,241.10
2022-10-06T00:53:44.470Z,234.80
2022-10-06T00:54:44.450Z,239.20
2022-10-06T00:55:44.480Z,235.90
2022-10-06T00:56:44.444Z,234.70
2022-10-06T00:57:44.424Z,227.90
2022-10-06T00:58:44.419Z,218.10
2022-10-06T00:59:44.400Z,220.00
2022-10-06T01:00:44.437Z,222.20
2022-10-06T01:01:44.530Z,222.10
2022-10-06T01:02:44.405Z,226.20
2022-10-06T01:03:44.328Z,236.90
2022-10-06T01:04:44.354Z,242.30
2022-10-06T01:05:44.367Z,236.50
2022-10-06T01:06:44.324Z,241.00
2022-10-06T01:07:44.309Z,238.20
2022-10-06T01:08:44.297Z,244.80
2022-10-06T01:09:44.278Z,246.50
2022-10-06T01:10:44.286Z,250.30
2022-10-06T01:11:44.308Z,253.80
2022-10-06T01:12:44.257Z,255.60
2022-10-06T01:13:44.235Z,256.20
2022-10-06T01:14:44.241Z,258.60
2022-10-06T01:15:44.302Z,262.20
2022-10-06T01:16:44.247Z,263.70
2022-10-06T01:17:44.195Z,264.90
2022-10-06T01:18:44.177Z,267.10
2022-10-06T01:19:44.173Z,266.20
2022-10-06T01:20:44.157Z,265.60
2022-10-06T01:21:44.185Z,272.40
2022-10-06T01:22:44.137Z,254.90
2022-10-06T01:23:44.107Z,261.00
2022-10-06T01:24:44.123Z,264.30
2022-10-06T01:25:44.097Z,270.70
2022-10-06T01:26:44.132Z,265.20
2022-10-06T01:27:44.111Z,259.70
2022-10-06T01:28:44.104Z,282.30
2022-10-06T01:29:44.061Z,288.70
2022-10-06T01:30:44.103Z,268.60
2022-10-06T01:31:44.070Z,278.50
2022-10-06T01:32:44.003Z,269.80
2022-10-06T01:33:44.014Z,248.80
2022-10-06T01:34:43.995Z,231.70
2022-10-06T01:35:43.971Z,216.40
2022-10-06T01:36:44.017Z,210.80
2022-10-06T01:37:43.953Z,218.40
2022-10-06T01:38:43.960Z,222.00
2022-10-06T01:39:44.109Z,218.10
2022-10-06T01:40:43.935Z,215.00
2022-10-06T01:41:43.969Z,214.70
2022-10-06T01:42:43.922Z,216.50
2022-10-06T01:43:43.893Z,214.80
2022-10-06T01:44:43.875Z,201.70
2022-10-06T01:45:43.876Z,195.20
2022-10-06T01:46:43.949Z,194.10
2022-10-06T01:47:43.854Z,189.20
2022-10-06T01:48:43.834Z,186.50
2022-10-06T01:49:43.824Z,188.20
2022-10-06T01:50:43.816Z,193.80
2022-10-06T01:51:43.845Z,196.60
2022-10-06T01:52:43.795Z,199.10
2022-10-06T01:53:43.775Z,191.60
2022-10-06T01:54:43.774Z,194.10
2022-10-06T01:55:43.753Z,196.00
2022-10-06T01:56:43.785Z,192.40
2022-10-06T01:57:43.736Z,191.80
2022-10-06T01:58:43.714Z,199.10
2022-10-06T01:59:43.700Z,202.20
2022-10-06T02:00:43.684Z,185.30
2022-10-06T02:01:43.784Z,176.00
2022-10-06T02:02:43.654Z,177.90
2022-10-06T02:03:43.657Z,174.60
2022-10-06T02:04:43.661Z,190.80
2022-10-06T02:05:43.634Z,187.90
2022-10-06T02:06:43.730Z,185.60
2022-10-06T02:07:43.613Z,175.80
2022-10-06T02:08:43.617Z,161.30
2022-10-06T02:09:43.600Z,170.80
2022-10-06T02:10:43.573Z,180.20
2022-10-06T02:11:43.609Z,181.90
2022-10-06T02:12:43.551Z,194.60
2022-10-06T02:13:43.580Z,171.50
2022-10-06T02:14:43.548Z,176.20
2022-10-06T02:15:43.570Z,176.30
2022-10-06T02:16:43.567Z,195.40
2022-10-06T02:17:43.494Z,175.00
2022-10-06T02:18:43.502Z,166.90
2022-10-06T02:19:43.472Z,168.60
2022-10-06T02:20:43.519Z,180.50
2022-10-06T02:21:43.452Z,186.00
2022-10-06T02:22:43.462Z,172.70
2022-10-06T02:23:43.437Z,177.70
2022-10-06T02:24:43.415Z,157.70
2022-10-06T02:25:43.413Z,161.90
2022-10-06T02:26:43.459Z,163.80
2022-10-06T02:27:43.395Z,156.00
2022-10-06T02:28:43.422Z,155.30
2022-10-06T02:29:43.342Z,157.50
2022-10-06T02:30:43.340Z,164.80
2022-10-06T02:31:43.429Z,163.30
2022-10-06T02:32:43.327Z,164.10
2022-10-06T02:33:43.317Z,170.90
2022-10-06T02:34:43.312Z,167.00
2022-10-06T02:35:43.290Z,167.80
2022-10-06T02:36:43.331Z,168.80
2022-10-06T02:37:43.275Z,169.60
2022-10-06T02:38:43.259Z,164.30
2022-10-06T02:39:43.260Z,170.50
2022-10-06T02:40:43.233Z,173.40
2022-10-06T02:41:43.260Z,179.00
2022-10-06T02:42:43.228Z,178.50
2022-10-06T02:43:43.219Z,176.70
2022-10-06T02:44:43.192Z,176.20
2022-10-06T02:45:43.170Z,176.00
2022-10-06T02:46:43.261Z,182.40
2022-10-06T02:47:43.150Z,180.40
2022-10-06T02:48:43.149Z,181.80
2022-10-06T02:49:43.136Z,179.60
2022-10-06T02:50:43.199Z,174.20
2022-10-06T02:51:43.149Z,191.60
2022-10-06T02:52:43.095Z,212.90
2022-10-06T02:53:43.077Z,218.00
2022-10-06T02:54:43.076Z,233.10
2022-10-06T02:55:43.070Z,240.50
2022-10-06T02:56:43.110Z,251.20
2022-10-06T02:57:43.052Z,266.20
2022-10-06T02:58:43.046Z,244.40
2022-10-06T02:59:43.040Z,245.40
2022-10-06T03:00:43.006Z,246.20
2022-10-06T03:01:43.092Z,261.50
2022-10-06T03:02:43.162Z,241.70
2022-10-06T03:03:42.988Z,224.60
2022-10-06T03:04:42.970Z,212.80
2022-10-06T03:05:42.955Z,214.40
2022-10-06T03:06:42.979Z,208.60
2022-10-06T03:07:42.935Z,210.60
2022-10-06T03:08:42.917Z,213.20
2022-10-06T03:09:42.918Z,226.50
2022-10-06T03:10:42.903Z,240.00
2022-10-06T03:11:42.930Z,238.40
2022-10-06T03:12:42.886Z,241.50
2022-10-06T03:13:42.860Z,222.70
2022-10-06T03:14:42.852Z,232.90
2022-10-06T03:15:42.855Z,227.80
2022-10-06T03:16:42.870Z,220.00
2022-10-06T03:17:42.809Z,208.30
2022-10-06T03:18:42.817Z,202.20
2022-10-06T03:19:42.791Z,197.90
2022-10-06T03:20:42.806Z,207.50
2022-10-06T03:21:42.814Z,199.80
2022-10-06T03:22:42.760Z,210.20
2022-10-06T03:23:42.751Z,221.50
2022-10-06T03:24:42.738Z,198.90
2022-10-06T03:25:42.732Z,210.70
2022-10-06T03:26:42.787Z,203.80
2022-10-06T03:27:42.710Z,205.30
2022-10-06T03:28:42.747Z,212.90
2022-10-06T03:29:42.657Z,217.80
2022-10-06T03:30:42.660Z,215.10
2022-10-06T03:31:42.704Z,208.40
2022-10-06T03:32:42.644Z,216.50
2022-10-06T03:33:42.630Z,199.60
2022-10-06T03:34:42.633Z,177.70
2022-10-06T03:35:42.602Z,182.60
2022-10-06T03:36:42.655Z,179.00
2022-10-06T03:37:42.593Z,170.30
2022-10-06T03:38:42.575Z,165.00
2022-10-06T03:39:42.571Z,189.80
2022-10-06T03:40:42.558Z,110.00
2022-10-06T03:41:42.589Z,174.70
2022-10-06T03:42:42.527Z,168.80
2022-10-06T03:43:42.517Z,175.60
2022-10-06T03:44:42.546Z,195.30
2022-10-06T03:45:42.493Z,207.60
2022-10-06T03:46:42.606Z,103.60
2022-10-06T03:47:42.476Z,213.60
2022-10-06T03:48:42.475Z,208.60
2022-10-06T03:49:42.459Z,208.80
2022-10-06T03:50:42.430Z,203.90
2022-10-06T03:51:42.482Z,204.80
2022-10-06T03:52:42.425Z,193.00
2022-10-06T03:53:42.416Z,191.40
2022-10-06T03:54:42.398Z,189.60
2022-10-06T03:55:42.387Z,185.60
2022-10-06T03:56:42.431Z,186.20
2022-10-06T03:57:42.375Z,184.50
2022-10-06T03:58:42.355Z,177.40
2022-10-06T03:59:42.334Z,185.30
2022-10-06T04:00:42.358Z,175.20
2022-10-06T04:01:42.371Z,182.70
2022-10-06T04:02:42.295Z,173.90
2022-10-06T04:03:42.290Z,176.10
2022-10-06T04:04:42.295Z,180.50
2022-10-06T04:05:42.271Z,182.60
2022-10-06T04:06:42.317Z,187.90
2022-10-06T04:07:42.259Z,184.50
2022-10-06T04:08:42.241Z,174.80
2022-10-06T04:09:42.235Z,167.50
2022-10-06T04:10:42.214Z,173.50
2022-10-06T04:11:42.246Z,171.80
2022-10-06T04:12:42.205Z,173.10
2022-10-06T04:13:42.176Z,165.30
2022-10-06T04:14:42.175Z,167.30
2022-10-06T04:15:42.162Z,162.40
2022-10-06T04:16:42.293Z,163.50
2022-10-06T04:17:42.134Z,166.40
2022-10-06T04:18:42.136Z,170.10
2022-10-06T04:19:42.109Z,168.40
2022-10-06T04:20:42.112Z,167.60
2022-10-06T04:21:42.123Z,164.60
2022-10-06T04:22:42.107Z,160.80
2022-10-06T04:23:42.075Z,162.10
2022-10-06T04:24:42.054Z,159.80
2022-10-06T04:25:42.046Z,165.10
2022-10-06T04:26:42.061Z,166.10
2022-10-06T04:27:42.014Z,166.60
2022-10-06T04:28:42.127Z,171.40
2022-10-06T04:29:41.983Z,175.40
2022-10-06T04:30:42.012Z,175.10
2022-10-06T04:31:42.032Z,171.20
2022-10-06T04:32:41.952Z,134.10
2022-10-06T04:33:41.968Z,177.20
2022-10-06T04:34:41.963Z,180.80
2022-10-06T04:35:41.942Z,189.50
2022-10-06T04:36:41.969Z,119.40
2022-10-06T04:37:41.930Z,228.30
2022-10-06T04:38:41.901Z,223.00
2022-10-06T04:39:41.918Z,109.70
2022-10-06T04:40:41.877Z,254.50
2022-10-06T04:41:41.933Z,135.40
2022-10-06T04:42:41.852Z,261.00
2022-10-06T04:43:41.833Z,182.00
2022-10-06T04:44:41.852Z,289.00
2022-10-06T04:45:41.857Z,147.40
2022-10-06T04:46:43.626Z,276.00
2022-10-06T04:47:41.817Z,63.40
2022-10-06T04:48:41.792Z,66.80
2022-10-06T04:49:41.773Z,66.20
2022-10-06T04:50:41.758Z,75.10
2022-10-06T04:51:41.791Z,87.80
2022-10-06T04:52:41.745Z,92.90
2022-10-06T04:53:41.736Z,105.00
2022-10-06T04:54:41.713Z,91.50
2022-10-06T04:55:41.717Z,97.50
2022-10-06T04:56:41.724Z,102.10
2022-10-06T04:57:41.705Z,104.30
2022-10-06T04:58:41.678Z,114.80
2022-10-06T04:59:41.648Z,280.50
2022-10-06T05:00:41.722Z,287.40
2022-10-06T05:01:41.685Z,252.20
2022-10-06T05:02:41.735Z,144.10
2022-10-06T05:03:41.633Z,294.40
2022-10-06T05:04:41.617Z,296.20
2022-10-06T05:05:41.612Z,118.10
2022-10-06T05:06:41.726Z,282.30
2022-10-06T05:07:41.597Z,290.20
2022-10-06T05:08:41.574Z,226.10
2022-10-06T05:09:41.556Z,284.60
2022-10-06T05:10:41.544Z,153.30
2022-10-06T05:11:41.573Z,287.70
2022-10-06T05:12:41.505Z,292.30
2022-10-06T05:13:41.520Z,280.30
2022-10-06T05:14:41.497Z,108.60
2022-10-06T05:15:41.527Z,317.00
2022-10-06T05:16:41.576Z,310.00
2022-10-06T05:17:41.455Z,321.80
2022-10-06T05:18:41.462Z,163.90
2022-10-06T05:19:41.452Z,226.20
2022-10-06T05:20:41.412Z,339.30
2022-10-06T05:21:41.448Z,131.10
2022-10-06T05:22:41.411Z,356.20
2022-10-06T05:23:41.400Z,136.70
2022-10-06T05:24:41.381Z,379.70
2022-10-06T05:25:41.398Z,385.60
2022-10-06T05:26:41.403Z,151.10
2022-10-06T05:27:41.335Z,389.20
2022-10-06T05:28:41.451Z,147.70
2022-10-06T05:29:41.301Z,419.40
2022-10-06T05:30:41.298Z,342.40
2022-10-06T05:31:41.390Z,169.10
2022-10-06T05:32:41.284Z,399.50
2022-10-06T05:33:41.290Z,172.00
2022-10-06T05:34:41.252Z,151.90
2022-10-06T05:35:41.259Z,412.40
2022-10-06T05:36:41.270Z,216.20
2022-10-06T05:37:41.255Z,370.80
2022-10-06T05:38:41.235Z,265.30
2022-10-06T05:39:41.225Z,242.90
2022-10-06T05:40:41.193Z,153.40
2022-10-06T05:41:41.232Z,241.70
2022-10-06T05:42:41.188Z,116.90
2022-10-06T05:43:41.167Z,271.00
2022-10-06T05:44:41.168Z,53.50
2022-10-06T05:45:41.173Z,267.20
2022-10-06T05:46:41.178Z,66.50
2022-10-06T05:47:41.131Z,238.10
2022-10-06T05:48:41.116Z,45.80
2022-10-06T05:49:41.106Z,201.30
2022-10-06T05:50:41.089Z,125.40
2022-10-06T05:51:41.133Z,215.90
2022-10-06T05:52:41.073Z,201.80
2022-10-06T05:53:41.060Z,183.70
2022-10-06T05:54:41.043Z,262.80
2022-10-06T05:55:41.032Z,74.60
2022-10-06T05:56:41.079Z,298.20
2022-10-06T05:57:41.030Z,111.30
2022-10-06T05:58:41.000Z,342.80
2022-10-06T05:59:40.969Z,332.50
2022-10-06T06:00:40.958Z,294.40
2022-10-06T06:01:41.122Z,322.80
2022-10-06T06:02:41.015Z,311.30
2022-10-06T06:03:40.946Z,417.30
2022-10-06T06:04:40.946Z,410.30
2022-10-06T06:05:40.920Z,376.10
2022-10-06T06:06:40.950Z,453.20
2022-10-06T06:07:40.898Z,118.40
2022-10-06T06:08:40.868Z,437.10
2022-10-06T06:09:40.879Z,294.60
2022-10-06T06:10:40.847Z,449.90
2022-10-06T06:11:40.901Z,149.40
2022-10-06T06:12:40.848Z,86.90
2022-10-06T06:13:40.837Z,351.30
2022-10-06T06:14:40.828Z,422.40
2022-10-06T06:15:40.807Z,239.00
2022-10-06T06:16:40.920Z,266.50
2022-10-06T06:17:40.769Z,408.40
2022-10-06T06:18:40.794Z,267.40
2022-10-06T06:19:40.761Z,269.60
2022-10-06T06:20:40.813Z,325.80
2022-10-06T06:21:40.773Z,108.90
2022-10-06T06:22:40.727Z,282.90
2022-10-06T06:23:40.727Z,85.30
2022-10-06T06:24:40.692Z,220.10
2022-10-06T06:25:40.704Z,179.70
2022-10-06T06:26:40.763Z,55.50
2022-10-06T06:27:40.672Z,143.20
2022-10-06T06:28:40.707Z,120.50
2022-10-06T06:29:40.638Z,125.20
2022-10-06T06:30:40.768Z,237.00
2022-10-06T06:31:40.752Z,81.30
2022-10-06T06:32:40.621Z,188.30
2022-10-06T06:33:40.617Z,352.20
2022-10-06T06:34:40.595Z,436.10
2022-10-06T06:35:40.587Z,45.10
2022-10-06T06:36:40.727Z,407.50
2022-10-06T06:37:40.582Z,89.50
2022-10-06T06:38:40.547Z,291.00
2022-10-06T06:39:40.531Z,351.80
2022-10-06T06:40:40.528Z,311.40
2022-10-06T06:41:40.558Z,361.50
2022-10-06T06:42:40.523Z,145.10
2022-10-06T06:43:40.484Z,373.10
2022-10-06T06:44:40.471Z,367.20
2022-10-06T06:45:40.503Z,311.60
2022-10-06T06:46:40.518Z,304.10
2022-10-06T06:47:40.456Z,331.20
2022-10-06T06:48:40.428Z,375.80
2022-10-06T06:49:40.422Z,27.10
2022-10-06T06:50:40.394Z,323.00
2022-10-06T06:51:40.462Z,383.50
2022-10-06T06:52:40.391Z,385.30
2022-10-06T06:53:40.372Z,365.60
2022-10-06T06:54:40.346Z,353.40
2022-10-06T06:55:40.342Z,357.70
2022-10-06T06:56:40.366Z,164.50
2022-10-06T06:57:40.313Z,217.50
2022-10-06T06:58:40.293Z,315.50
2022-10-06T06:59:40.298Z,254.80
2022-10-06T07:00:40.293Z,262.20
2022-10-06T07:01:40.419Z,275.70
2022-10-06T07:02:40.293Z,278.40
2022-10-06T07:04:41.231Z,196.20
2022-10-06T07:05:40.242Z,36.50
2022-10-06T07:06:40.273Z,88.30
2022-10-06T07:07:40.216Z,175.10
2022-10-06T07:08:40.183Z,150.20
2022-10-06T07:09:40.198Z,201.80
2022-10-06T07:10:40.183Z,37.70
2022-10-06T07:11:40.231Z,216.30
2022-10-06T07:12:40.161Z,56.30
2022-10-06T07:13:40.151Z,150.00
2022-10-06T07:14:40.134Z,33.30
2022-10-06T07:15:40.225Z,110.80
2022-10-06T07:16:40.151Z,46.60
2022-10-06T07:17:40.097Z,107.00
2022-10-06T07:18:40.105Z,99.20
2022-10-06T07:19:40.080Z,72.30
2022-10-06T07:20:40.074Z,117.80
2022-10-06T07:21:40.142Z,70.40
2022-10-06T07:22:40.055Z,108.40
2022-10-06T07:23:40.046Z,68.00
2022-10-06T07:24:40.034Z,97.00
2022-10-06T07:25:40.028Z,80.90
2022-10-06T07:26:40.033Z,155.00
2022-10-06T07:27:39.998Z,25.70
2022-10-06T07:28:40.060Z,63.40
2022-10-06T07:29:39.982Z,36.50
2022-10-06T07:30:41.046Z,22.60
2022-10-06T07:31:40.060Z,45.00
2022-10-06T07:32:39.994Z,48.30
2022-10-06T07:33:39.915Z,24.60
2022-10-06T07:34:39.951Z,25.30
2022-10-06T07:35:39.904Z,45.10
2022-10-06T07:36:39.925Z,64.60
2022-10-06T07:37:39.886Z,65.10
2022-10-06T07:38:39.865Z,62.60
2022-10-06T07:39:39.878Z,74.40
2022-10-06T07:40:46.315Z,78.10
2022-10-06T07:41:40.876Z,87.50
2022-10-06T07:42:39.819Z,82.30
2022-10-06T07:43:39.814Z,99.00
2022-10-06T07:44:39.809Z,99.30
2022-10-06T07:45:39.880Z,90.10
2022-10-06T07:46:39.850Z,105.70
2022-10-06T07:47:39.768Z,64.00
2022-10-06T07:48:39.760Z,99.90
2022-10-06T07:49:39.735Z,45.30
2022-10-06T07:50:39.743Z,197.70
2022-10-06T07:51:39.716Z,313.90
2022-10-06T07:52:39.748Z,107.30
2022-10-06T07:53:39.709Z,69.90
2022-10-06T07:54:39.679Z,324.30
2022-10-06T07:55:39.655Z,132.50
2022-10-06T07:56:39.650Z,402.90
2022-10-06T07:57:39.689Z,725.10
2022-10-06T07:58:39.632Z,944.40
2022-10-06T07:59:39.636Z,320.40
2022-10-06T08:00:39.626Z,430.90
2022-10-06T08:01:39.686Z,266.00
2022-10-06T08:02:39.731Z,999.90
2022-10-06T08:03:39.607Z,999.90
2022-10-06T08:04:39.589Z,999.90
2022-10-06T08:05:39.569Z,999.90
2022-10-06T08:06:39.550Z,999.90
2022-10-06T08:07:39.574Z,999.90
2022-10-06T08:08:39.537Z,999.90
2022-10-06T08:09:39.532Z,999.90
2022-10-06T08:10:39.513Z,999.90
2022-10-06T08:11:39.522Z,999.90
2022-10-06T08:12:39.599Z,999.90
2022-10-06T08:13:39.481Z,999.90
2022-10-06T08:14:39.462Z,999.90
2022-10-06T08:15:39.525Z,999.90
2022-10-06T08:16:39.441Z,999.90
2022-10-06T08:17:39.504Z,999.90
2022-10-06T08:18:46.458Z,999.90
2022-10-06T08:19:40.404Z,999.90
2022-10-06T08:20:39.392Z,999.90
2022-10-06T08:21:39.389Z,999.90
2022-10-06T08:22:39.405Z,999.90
2022-10-06T08:23:39.345Z,398.50
2022-10-06T08:25:04.323Z,999.90
2022-10-06T08:25:40.323Z,999.90
2022-10-06T08:26:39.352Z,999.90
2022-10-06T08:27:39.389Z,999.90
2022-10-06T08:28:39.366Z,999.90
2022-10-06T08:29:39.315Z,999.90
2022-10-06T08:30:39.290Z,999.90
2022-10-06T08:31:39.408Z,999.90
2022-10-06T08:32:39.332Z,999.90
2022-10-06T08:33:39.241Z,999.90
2022-10-06T08:34:39.240Z,999.90
2022-10-06T08:35:39.221Z,999.90
2022-10-06T08:36:39.575Z,999.90
2022-10-06T08:37:39.261Z,999.90
2022-10-06T08:38:39.196Z,999.90
2022-10-06T08:39:39.175Z,999.90
2022-10-06T08:40:39.193Z,999.90
2022-10-06T08:41:39.173Z,999.90
2022-10-06T08:42:39.193Z,999.90
2022-10-06T08:43:39.143Z,999.90
2022-10-06T08:44:39.116Z,999.90
2022-10-06T08:45:39.118Z,999.90
2022-10-06T08:46:39.093Z,999.90
2022-10-06T08:47:39.134Z,999.90
2022-10-06T08:48:39.076Z,999.90
2022-10-06T08:49:39.082Z,999.90
2022-10-06T08:50:39.083Z,999.90
2022-10-06T08:51:39.033Z,999.90
2022-10-06T08:52:39.055Z,999.90
2022-10-06T08:53:39.004Z,999.90
2022-10-06T08:54:39.002Z,999.90
2022-10-06T08:55:39.010Z,999.90
2022-10-06T08:56:38.988Z,999.90
2022-10-06T08:57:39.059Z,999.90
2022-10-06T08:58:38.958Z,999.90
2022-10-06T08:59:38.977Z,999.90
2022-10-06T09:00:38.940Z,999.90
2022-10-06T09:01:39.045Z,999.90
2022-10-06T09:02:38.999Z,999.90
2022-10-06T09:03:38.914Z,999.90
2022-10-06T09:04:38.874Z,999.90
2022-10-06T09:05:38.907Z,999.90
2022-10-06T09:06:38.920Z,999.90
2022-10-06T09:07:38.851Z,999.90
2022-10-06T09:08:38.874Z,999.90
2022-10-06T09:09:38.840Z,999.90
2022-10-06T09:10:38.835Z,999.90
2022-10-06T09:11:38.876Z,999.90
2022-10-06T09:12:38.824Z,999.90
2022-10-06T09:13:38.818Z,999.90
2022-10-06T09:14:38.771Z,999.90
2022-10-06T09:15:38.820Z,609.40
2022-10-06T09:16:38.753Z,305.40
2022-10-06T09:17:38.790Z,601.50
2022-10-06T09:18:56.519Z,530.40
2022-10-06T09:19:39.753Z,452.80
2022-10-06T09:20:38.719Z,47.00
2022-10-06T09:21:38.706Z,11.10
2022-10-06T09:22:38.753Z,11.00
2022-10-06T09:23:38.658Z,12.10
2022-10-06T09:24:40.493Z,12.60
2022-10-06T09:25:38.656Z,13.30
2022-10-06T09:26:38.654Z,9.10
2022-10-06T09:27:38.698Z,8.00
2022-10-06T09:28:38.689Z,8.30
2022-10-06T09:29:38.624Z,9.80
2022-10-06T09:30:38.594Z,8.60
2022-10-06T09:31:38.761Z,9.10
2022-10-06T09:32:38.644Z,24.30
2022-10-06T09:33:38.556Z,18.50
2022-10-06T09:34:38.560Z,488.90
2022-10-06T09:35:38.558Z,911.60
2022-10-06T09:36:38.539Z,168.20
2022-10-06T09:37:38.571Z,999.90
2022-10-06T09:38:38.520Z,999.90
2022-10-06T09:39:38.495Z,999.90
2022-10-06T09:40:38.495Z,999.90
2022-10-06T09:41:38.475Z,999.90
2022-10-06T09:42:38.544Z,634.60
2022-10-06T09:43:38.500Z,596.80
2022-10-06T09:44:38.455Z,468.50
2022-10-06T09:45:38.439Z,903.50
2022-10-06T09:46:38.443Z,999.90
2022-10-06T09:47:38.442Z,999.90
2022-10-06T09:48:38.418Z,999.90
2022-10-06T09:49:38.392Z,999.90
2022-10-06T09:50:38.375Z,999.90
2022-10-06T09:51:38.349Z,999.90
2022-10-06T09:52:38.414Z,999.90
2022-10-06T09:53:38.384Z,999.90
2022-10-06T09:54:38.332Z,999.90
2022-10-06T09:55:38.311Z,999.90
2022-10-06T09:56:38.332Z,999.90
2022-10-06T09:57:38.379Z,999.90
2022-10-06T09:58:38.295Z,999.90
2022-10-06T09:59:40.297Z,999.90
2022-10-06T10:00:38.334Z,999.90
2022-10-06T10:01:38.244Z,999.90
2022-10-06T10:02:38.339Z,411.00
2022-10-06T10:03:38.230Z,984.80
2022-10-06T10:04:38.232Z,281.70
2022-10-06T10:05:38.212Z,17.00
2022-10-06T10:06:38.192Z,16.70
2022-10-06T10:07:38.234Z,15.00
2022-10-06T10:08:38.192Z,9.80
2022-10-06T10:09:38.175Z,13.10
2022-10-06T10:10:38.162Z,8.10
2022-10-06T10:11:38.129Z,8.10
2022-10-06T10:12:38.170Z,10.50
2022-10-06T10:13:38.112Z,7.50
2022-10-06T10:14:38.118Z,7.80
2022-10-06T10:15:38.205Z,11.40
2022-10-06T10:16:38.153Z,11.40
2022-10-06T10:17:38.131Z,9.40
2022-10-06T10:18:38.093Z,9.20
2022-10-06T10:19:38.038Z,6.70
2022-10-06T10:20:38.096Z,6.20
2022-10-06T10:21:38.021Z,7.40
2022-10-06T10:22:38.080Z,7.50
2022-10-06T10:23:38.010Z,7.50
2022-10-06T10:24:37.998Z,6.90
2022-10-06T10:25:38.006Z,7.20
2022-10-06T10:26:37.982Z,7.10
2022-10-06T10:27:38.021Z,7.20
2022-10-06T10:28:38.013Z,7.60
2022-10-06T10:29:37.974Z,6.80
2022-10-06T10:30:37.934Z,6.90
2022-10-06T10:31:37.995Z,7.10
2022-10-06T10:32:37.965Z,9.30
2022-10-06T10:33:37.908Z,9.20
2022-10-06T10:34:37.912Z,8.20
2022-10-06T10:35:37.882Z,9.50
2022-10-06T10:36:37.849Z,9.90
2022-10-06T10:37:37.917Z,9.40
2022-10-06T10:38:37.840Z,10.30
2022-10-06T10:39:37.834Z,9.60
2022-10-06T10:40:37.828Z,9.00
2022-10-06T10:41:37.814Z,9.20
2022-10-06T10:42:37.849Z,8.70
2022-10-06T10:43:37.787Z,7.50
2022-10-06T10:44:37.783Z,6.60
2022-10-06T10:45:37.773Z,6.70
2022-10-06T10:46:37.836Z,7.20
2022-10-06T10:47:37.808Z,6.60
2022-10-06T10:48:37.716Z,6.00
2022-10-06T10:49:37.714Z,6.10
2022-10-06T10:50:37.793Z,6.00
2022-10-06T10:51:37.696Z,6.20
2022-10-06T10:52:37.742Z,6.00
2022-10-06T10:53:40.280Z,5.90
2022-10-06T10:54:38.666Z,6.40
2022-10-06T10:55:37.658Z,6.70
2022-10-06T10:56:37.628Z,6.10
2022-10-06T10:57:37.667Z,6.00
2022-10-06T10:58:37.618Z,5.80
2022-10-06T10:59:37.613Z,6.70
2022-10-06T11:00:37.697Z,5.50
2022-10-06T11:01:37.660Z,5.50
2022-10-06T11:02:37.655Z,5.80
2022-10-06T11:03:37.597Z,5.80
2022-10-06T11:04:37.549Z,5.90
2022-10-06T11:05:37.545Z,6.00
2022-10-06T11:06:37.558Z,6.00
2022-10-06T11:07:37.605Z,5.30
2022-10-06T11:08:37.525Z,5.40
2022-10-06T11:09:37.500Z,6.20
2022-10-06T11:10:37.499Z,5.90
2022-10-06T11:11:37.481Z,6.00
2022-10-06T11:12:37.509Z,6.20
2022-10-06T11:13:37.444Z,5.80
2022-10-06T11:14:37.473Z,5.80
2022-10-06T11:15:37.466Z,6.10
2022-10-06T11:16:37.480Z,5.60
2022-10-06T11:17:37.437Z,5.80
2022-10-06T11:18:37.395Z,5.90
2022-10-06T11:19:37.356Z,6.00
2022-10-06T11:20:37.369Z,6.20
2022-10-06T11:21:37.368Z,6.20
2022-10-06T11:22:37.414Z,5.90
2022-10-06T11:23:37.372Z,5.80
2022-10-06T11:24:37.344Z,6.20
2022-10-06T11:25:37.330Z,5.60
2022-10-06T11:26:37.342Z,5.60
2022-10-06T11:27:37.364Z,6.20
2022-10-06T11:28:37.362Z,5.90
2022-10-06T11:29:37.260Z,5.20
2022-10-06T11:30:37.294Z,5.90
2022-10-06T11:31:37.310Z,5.80
2022-10-06T11:32:37.299Z,5.50
2022-10-06T11:33:37.240Z,5.30
2022-10-06T11:34:37.232Z,5.80
2022-10-06T11:35:37.227Z,5.60
2022-10-06T11:36:37.209Z,5.70
2022-10-06T11:37:37.240Z,5.50
2022-10-06T11:38:37.182Z,7.60
2022-10-06T11:39:37.169Z,7.60
2022-10-06T11:40:37.161Z,7.10
2022-10-06T11:41:37.168Z,8.20
2022-10-06T11:42:37.299Z,7.20
2022-10-06T11:43:37.152Z,6.60
2022-10-06T11:44:37.137Z,7.00
2022-10-06T11:45:37.181Z,7.20
2022-10-06T11:46:39.194Z,7.20
2022-10-06T11:47:37.113Z,6.80
2022-10-06T11:48:37.057Z,6.30
2022-10-06T11:49:37.061Z,6.00
2022-10-06T11:50:37.058Z,5.60
2022-10-06T11:51:37.063Z,5.50
2022-10-06T11:52:37.096Z,5.40
2022-10-06T11:53:37.069Z,5.80
2022-10-06T11:54:37.035Z,5.60
2022-10-06T11:55:37.019Z,5.50
2022-10-06T11:56:37.163Z,5.50
2022-10-06T11:57:37.029Z,5.20
2022-10-06T11:58:42.349Z,5.80
2022-10-06T11:59:37.955Z,5.80
2022-10-06T12:00:36.941Z,5.80
2022-10-06T12:01:36.970Z,6.10
2022-10-06T12:02:37.128Z,5.80
2022-10-06T12:03:36.914Z,5.80
2022-10-06T12:04:36.910Z,5.90
2022-10-06T12:05:55.865Z,5.60
2022-10-06T12:06:37.880Z,5.70
2022-10-06T12:07:36.911Z,5.70
2022-10-06T12:08:36.882Z,5.60
2022-10-06T12:09:36.878Z,5.30
2022-10-06T12:10:36.858Z,5.40
2022-10-06T12:11:36.827Z,5.60
2022-10-06T12:12:36.852Z,5.80
2022-10-06T12:14:26.631Z,5.70
2022-10-06T12:16:32.342Z,5.60
2022-10-06T12:17:37.794Z,5.70
2022-10-06T12:18:36.873Z,5.70
2022-10-06T12:19:36.728Z,5.80
2022-10-06T12:20:36.751Z,5.40
2022-10-06T12:21:36.721Z,5.40
2022-10-06T12:22:36.767Z,5.60
2022-10-06T12:23:36.694Z,5.80
2022-10-06T12:24:36.682Z,5.60
2022-10-06T12:25:36.664Z,6.20
2022-10-06T12:26:36.661Z,5.70
2022-10-06T12:27:36.712Z,5.80
2022-10-06T12:28:36.722Z,6.00
2022-10-06T12:29:36.632Z,5.90
2022-10-06T12:30:36.666Z,5.70
2022-10-06T12:31:36.627Z,5.70
2022-10-06T12:32:36.635Z,5.60
2022-10-06T12:33:36.570Z,5.40
2022-10-06T12:34:36.590Z,5.40
2022-10-06T12:35:36.561Z,5.30
2022-10-06T12:36:36.559Z,5.50
2022-10-06T12:37:36.582Z,5.30
2022-10-06T12:38:36.540Z,5.50
2022-10-06T12:39:36.519Z,5.50
2022-10-06T12:40:36.515Z,5.70
2022-10-06T12:41:36.504Z,5.70
2022-10-06T12:42:36.533Z,5.70
2022-10-06T12:43:36.496Z,5.90